Wednesday, May 25, 2016, 10:37 PM EDT

KSHD, Staunton / Shenandoah

Location: Weyers Cave, VA, United States Lat: 38.267
Local Time: 10:37 PM EDT ( 2:37 GMT) Lon: -78.9
Time Zone: US/Eastern Elev: 1200 ft

Show me the last for .
Show Decoded

2016-05-25 22:15 METAR KSHD 260215Z AUTO 00000KT 10SM CLR 17/15 A3017 RMK AO2 T01720145 =
2016-05-25 21:55 METAR KSHD 260155Z AUTO 00000KT 10SM CLR 18/14 A3017 RMK AO2 T01830138 =
2016-05-25 21:35 METAR KSHD 260135Z AUTO 00000KT 10SM CLR 21/13 A3016 RMK AO2 T02050133 =
2016-05-25 21:15 METAR KSHD 260115Z AUTO 00000KT 10SM CLR 21/13 A3016 RMK AO2 T02100134 =
2016-05-25 20:55 METAR KSHD 260055Z AUTO 17003KT 10SM CLR 21/14 A3016 RMK AO2 T02100135 =
2016-05-25 20:35 METAR KSHD 260035Z AUTO 17003KT 10SM CLR 22/14 A3017 RMK AO2 T02200135 =
2016-05-25 20:15 METAR KSHD 260015Z AUTO 17003KT 10SM CLR 23/14 A3017 RMK AO2 T02310135 =
2016-05-25 19:55 METAR KSHD 252355Z AUTO 00000KT 10SM CLR 24/13 A3016 RMK AO2 T02420133 10280
                 20242 =
2016-05-25 19:35 METAR KSHD 252335Z AUTO 18003KT 10SM CLR 25/13 A3015 RMK AO2 T02490129 =
2016-05-25 19:15 METAR KSHD 252315Z AUTO 17003KT 10SM CLR 26/13 A3015 RMK AO2 T02570130 =
2016-05-25 18:55 METAR KSHD 252255Z AUTO 17003KT 10SM CLR 26/12 A3015 RMK AO2 T02640123 =
2016-05-25 18:35 METAR KSHD 252235Z AUTO 18003KT 10SM CLR 27/12 A3015 RMK AO2 T02690116 =
2016-05-25 18:15 METAR KSHD 252215Z AUTO 19004KT 10SM CLR 27/12 A3015 RMK AO2 T02740117 =
2016-05-25 17:55 METAR KSHD 252155Z AUTO 18004KT 10SM CLR 28/11 A3015 RMK AO2 T02750114 =
2016-05-25 17:35 METAR KSHD 252135Z AUTO 17006KT 10SM CLR 28/11 A3016 RMK AO2 T02750110 =
2016-05-25 17:15 METAR KSHD 252115Z AUTO 17008KT 10SM CLR 28/11 A3016 RMK AO2 T02760111 =
2016-05-25 16:55 METAR KSHD 252055Z AUTO 15008KT 10SM CLR 28/11 A3016 RMK AO2 T02750114 =
2016-05-25 16:35 METAR KSHD 252035Z AUTO 16005KT 10SM CLR 28/13 A3017 RMK AO2 T02790125 =
2016-05-25 16:15 METAR KSHD 252015Z AUTO 15006KT 10SM CLR 27/12 A3018 RMK AO2 T02730116 =
2016-05-25 15:55 METAR KSHD 251955Z AUTO 15005KT 10SM CLR 28/12 A3018 RMK AO2 T02760122 =
2016-05-25 15:35 METAR KSHD 251935Z AUTO 19005KT 10SM CLR 28/12 A3019 RMK AO2 T02760124 =
2016-05-25 15:15 METAR KSHD 251915Z AUTO 19006KT 10SM CLR 27/12 A3019 RMK AO2 T02730121 =
2016-05-25 14:55 METAR KSHD 251855Z AUTO 19006KT 10SM CLR 27/11 A3019 RMK AO2 T02690113 =
2016-05-25 14:35 METAR KSHD 251835Z AUTO 19007KT 10SM CLR 27/11 A3019 RMK AO2 T02650114 =
2016-05-25 14:15 METAR KSHD 251815Z AUTO 20006KT 10SM CLR 27/12 A3020 RMK AO2 T02670116 =
2016-05-25 13:55 METAR KSHD 251755Z AUTO 23003KT 10SM CLR 26/11 A3021 RMK AO2 T02620111 10263
                 20127 =
2016-05-25 13:35 METAR KSHD 251735Z AUTO 16003KT 10SM CLR 26/11 A3021 RMK AO2 T02570105 =
2016-05-25 13:15 METAR KSHD 251715Z AUTO 20003KT 10SM CLR 26/11 A3022 RMK AO2 T02560110 =
2016-05-25 12:55 METAR KSHD 251655Z AUTO 13004KT 10SM CLR 25/11 A3023 RMK AO2 T02470113 =
2016-05-25 12:35 METAR KSHD 251635Z AUTO 16006KT 10SM CLR 25/13 A3023 RMK AO2 T02510125 =
2016-05-25 12:15 METAR KSHD 251615Z AUTO 00000KT 10SM CLR 24/12 A3023 RMK AO2 T02440116 =
2016-05-25 11:55 METAR KSHD 251555Z AUTO 17004KT 10SM CLR 24/10 A3024 RMK AO2 T02420104 =
2016-05-25 11:35 METAR KSHD 251535Z AUTO 00000KT 10SM CLR 24/09 A3024 RMK AO2 T02370092 =
2016-05-25 11:15 METAR KSHD 251515Z AUTO 00000KT 10SM CLR 24/10 A3024 RMK AO2 T02350102 =
2016-05-25 10:55 METAR KSHD 251455Z AUTO 00000KT 10SM CLR 23/12 A3025 RMK AO2 T02260121 =
2016-05-25 10:35 METAR KSHD 251435Z AUTO 00000KT 10SM CLR 22/12 A3025 RMK AO2 T02200123 =
2016-05-25 10:15 METAR KSHD 251415Z AUTO 15003KT 10SM CLR 21/13 A3024 RMK AO2 T02140125 =
2016-05-25 09:55 METAR KSHD 251355Z AUTO 00000KT 10SM CLR 21/13 A3024 RMK AO2 T02050125 =
2016-05-25 09:35 METAR KSHD 251335Z AUTO 20003KT 10SM CLR 19/12 A3025 RMK AO2 T01940120 =
2016-05-25 09:15 METAR KSHD 251315Z AUTO 22003KT 10SM CLR 18/12 A3025 RMK AO2 T01820122 =
2016-05-25 08:55 METAR KSHD 251255Z AUTO 00000KT 10SM CLR 17/12 A3025 RMK AO2 T01700121 =
2016-05-25 08:35 METAR KSHD 251235Z AUTO 00000KT 10SM CLR 16/11 A3025 RMK AO2 T01550113 =
2016-05-25 08:15 METAR KSHD 251215Z AUTO 00000KT 10SM CLR 14/12 A3026 RMK AO2 T01420115 =
2016-05-25 07:55 METAR KSHD 251155Z AUTO 00000KT 10SM CLR 13/11 A3025 RMK AO2 70007 T01260107
                 10126 20083 =
2016-05-25 07:35 METAR KSHD 251135Z AUTO 00000KT 10SM CLR 12/10 A3025 RMK AO2 T01150101 =
2016-05-25 07:15 METAR KSHD 251115Z AUTO 00000KT 10SM CLR 11/10 A3025 RMK AO2 T01050097 =
2016-05-25 06:55 METAR KSHD 251055Z AUTO 00000KT 10SM CLR 10/09 A3025 RMK AO2 T00960088 =
2016-05-25 06:35 METAR KSHD 251035Z AUTO 00000KT 10SM SCT003 09/08 A3023 RMK AO2 T00850079 =
2016-05-25 06:15 METAR KSHD 251015Z AUTO 00000KT 10SM CLR 09/08 A3022 RMK AO2 T00900084 =
2016-05-25 05:55 METAR KSHD 250955Z AUTO 00000KT 10SM CLR 09/08 A3021 RMK AO2 T00860080 =
2016-05-25 05:35 METAR KSHD 250935Z AUTO 00000KT 10SM CLR 09/09 A3020 RMK AO2 T00940089 =
2016-05-25 05:15 METAR KSHD 250915Z AUTO 00000KT 10SM CLR 09/09 A3020 RMK AO2 T00940088 =
2016-05-25 04:55 METAR KSHD 250855Z AUTO 00000KT 7SM CLR 09/09 A3020 RMK AO2 T00900086 =
2016-05-25 04:35 METAR KSHD 250835Z AUTO 00000KT 7SM CLR 09/08 A3019 RMK AO2 T00880081 =
2016-05-25 04:15 METAR KSHD 250815Z AUTO 00000KT 10SM CLR 10/09 A3018 RMK AO2 T00990090 =
2016-05-25 03:55 METAR KSHD 250755Z AUTO 00000KT 10SM CLR 10/09 A3019 RMK AO2 T00960091 =
2016-05-25 03:35 METAR KSHD 250735Z AUTO 00000KT 10SM CLR 11/10 A3019 RMK AO2 T01050097 =
2016-05-25 03:15 METAR KSHD 250715Z AUTO 00000KT 10SM CLR 11/10 A3019 RMK AO2 T01070096 =
2016-05-25 02:55 METAR KSHD 250655Z AUTO 00000KT 10SM CLR 11/10 A3018 RMK AO2 T01120100 =
2016-05-25 02:35 METAR KSHD 250635Z AUTO 00000KT 10SM CLR 10/09 A3018 RMK AO2 T01040094 =
2016-05-25 02:15 METAR KSHD 250615Z AUTO 00000KT 10SM CLR 11/10 A3018 RMK AO2 T01070096 =
2016-05-25 01:55 METAR KSHD 250555Z AUTO 00000KT 10SM CLR 11/10 A3017 RMK AO2 T01120102 10231
                 20106 =
2016-05-25 01:35 METAR KSHD 250535Z AUTO 00000KT 10SM CLR 11/10 A3017 RMK AO2 T01080100 =
2016-05-25 01:15 METAR KSHD 250515Z AUTO 00000KT 10SM CLR 11/10 A3017 RMK AO2 T01090102 =
2016-05-25 00:55 METAR KSHD 250455Z AUTO 00000KT 10SM CLR 12/10 A3017 RMK AO2 T01190102 =
2016-05-25 00:35 METAR KSHD 250435Z AUTO 00000KT 10SM CLR 11/10 A3017 RMK AO2 T01100101 =
2016-05-25 00:15 METAR KSHD 250415Z AUTO 00000KT 10SM CLR 13/11 A3017 RMK AO2 T01280108 =
2016-05-24 23:55 METAR KSHD 250355Z AUTO 00000KT 10SM CLR 13/11 A3017 RMK AO2 T01260108 =
2016-05-24 23:35 METAR KSHD 250335Z AUTO 00000KT 10SM CLR 13/11 A3017 RMK AO2 T01300110 =
2016-05-24 23:15 METAR KSHD 250315Z AUTO 00000KT 10SM CLR 13/11 A3016 RMK AO2 T01340110 =
2016-05-24 22:55 METAR KSHD 250255Z AUTO 00000KT 10SM CLR 14/11 A3016 RMK AO2 T01380110 =

Support USWX by starting your Amazon purchase here.